Time;durP1;ratioP1;P1;durP2;ratioP2;P2;SDS_P1;SDS_P2;PMS_P1;PMS_P2;Temp;Humidity;BMP_temperature;BMP_pressure;BME280_temperature;BME280_humidity;BME280_pressure;Samples;Min_cycle;Max_cycle;Signal;HPM_P1;HPM_P2
2021/10/06 00:00:36;;;;;;;1.85;0.70;;;22.10;56.00;;;;;;5013976;28;20037;-47
2021/10/06 00:03:02;;;;;;;3.65;0.77;;;22.10;56.10;;;;;;5014010;28;20494;-51
2021/10/06 00:05:28;;;;;;;1.77;0.50;;;22.10;56.00;;;;;;5012762;28;20033;-47
2021/10/06 00:07:53;;;;;;;1.65;0.63;;;22.10;56.00;;;;;;5013330;28;20054;-47
2021/10/06 00:10:19;;;;;;;1.20;0.50;;;22.10;56.10;;;;;;5012582;28;20387;-47
2021/10/06 00:12:45;;;;;;;2.63;0.60;;;22.10;56.00;;;;;;5013242;28;20044;-47
2021/10/06 00:15:12;;;;;;;1.30;0.60;;;22.10;56.00;;;;;;5012530;28;20100;-47
2021/10/06 00:17:38;;;;;;;1.58;0.70;;;22.10;56.00;;;;;;5013549;28;20030;-47
2021/10/06 00:20:05;;;;;;;2.38;0.70;;;22.00;55.90;;;;;;4999936;28;20077;-51
2021/10/06 00:22:31;;;;;;;0.90;0.40;;;22.00;55.90;;;;;;5007641;28;20113;-47
2021/10/06 00:24:56;;;;;;;4.05;0.60;;;22.10;55.90;;;;;;5012251;28;20109;-47
2021/10/06 00:27:22;;;;;;;1.67;0.82;;;22.10;55.90;;;;;;5011127;28;20025;-49
2021/10/06 00:29:48;;;;;;;2.78;0.70;;;22.10;55.80;;;;;;5011945;28;20033;-47
2021/10/06 00:32:14;;;;;;;0.95;0.50;;;22.00;55.80;;;;;;5010895;28;20403;-50
2021/10/06 00:34:39;;;;;;;1.40;0.63;;;22.10;55.90;;;;;;5011093;28;20030;-48
2021/10/06 00:37:05;;;;;;;0.60;0.43;;;22.00;55.80;;;;;;5010983;28;20060;-50
2021/10/06 00:39:31;;;;;;;1.90;0.50;;;22.00;55.90;;;;;;5011727;28;20022;-51
2021/10/06 00:41:56;;;;;;;1.38;0.70;;;22.00;55.80;;;;;;5011717;28;20017;-47
2021/10/06 00:44:22;;;;;;;1.13;0.70;;;22.10;55.80;;;;;;5010135;28;20061;-47
2021/10/06 00:46:49;;;;;;;1.23;0.45;;;22.00;55.80;;;;;;5011304;28;20026;-50
2021/10/06 00:49:16;;;;;;;0.77;0.50;;;22.00;55.80;;;;;;5010801;28;20072;-48
2021/10/06 00:51:42;;;;;;;2.35;0.73;;;22.00;55.80;;;;;;5008626;28;20033;-48
2021/10/06 00:54:08;;;;;;;1.48;0.60;;;22.00;55.80;;;;;;5010849;28;20136;-51
2021/10/06 00:56:35;;;;;;;1.25;0.70;;;22.00;55.70;;;;;;5010986;28;20033;-50
2021/10/06 00:59:00;;;;;;;2.33;0.57;;;22.00;55.80;;;;;;5011161;28;20092;-49
2021/10/06 01:01:26;;;;;;;1.25;0.50;;;22.00;55.70;;;;;;5010080;28;20033;-48
2021/10/06 01:03:52;;;;;;;1.88;0.60;;;22.00;55.70;;;;;;5011310;28;20030;-48
2021/10/06 01:06:18;;;;;;;1.50;0.50;;;22.00;55.70;;;;;;5008586;28;20368;-50
2021/10/06 01:08:44;;;;;;;2.08;0.50;;;22.00;55.80;;;;;;5011202;28;20026;-48
2021/10/06 01:11:11;;;;;;;6.07;0.80;;;22.00;55.70;;;;;;5010004;28;20471;-49
2021/10/06 01:13:38;;;;;;;1.27;0.50;;;22.00;55.70;;;;;;5011210;28;20117;-47
2021/10/06 01:16:04;;;;;;;2.33;0.85;;;22.00;55.70;;;;;;5010326;28;20048;-50
2021/10/06 01:18:30;;;;;;;1.20;0.55;;;22.00;55.60;;;;;;5010633;28;20062;-47
2021/10/06 01:20:56;;;;;;;1.00;0.50;;;22.00;55.70;;;;;;5010609;28;20049;-50
2021/10/06 01:23:22;;;;;;;1.00;0.70;;;22.00;55.60;;;;;;5010519;28;20030;-49
2021/10/06 01:25:48;;;;;;;1.25;0.40;;;22.00;55.60;;;;;;5010746;28;20030;-50
2021/10/06 01:28:14;;;;;;;0.98;0.70;;;22.00;55.60;;;;;;5010401;28;20036;-51
2021/10/06 01:30:40;;;;;;;1.25;0.60;;;22.00;55.60;;;;;;5010956;28;20382;-47
2021/10/06 01:33:06;;;;;;;0.70;0.60;;;22.00;55.60;;;;;;5009918;28;20467;-53
2021/10/06 01:35:31;;;;;;;1.08;0.43;;;22.00;55.60;;;;;;5010389;28;20032;-47
2021/10/06 01:37:58;;;;;;;1.02;0.52;;;22.00;55.60;;;;;;5010184;28;20486;-47
2021/10/06 01:40:24;;;;;;;1.70;0.50;;;22.00;55.60;;;;;;5009881;28;20030;-48
2021/10/06 01:42:52;;;;;;;1.25;0.40;;;22.00;55.60;;;;;;5012186;28;20037;-47
2021/10/06 01:45:21;;;;;;;1.42;0.40;;;22.00;55.60;;;;;;5010279;28;20436;-48
2021/10/06 01:47:47;;;;;;;0.82;0.45;;;22.00;55.60;;;;;;5012273;28;20034;-48
2021/10/06 01:50:21;;;;;;;0.65;0.32;;;22.00;55.60;;;;;;5011119;28;20092;-47
2021/10/06 01:52:47;;;;;;;0.88;0.60;;;22.00;55.50;;;;;;5012213;28;20030;-50
2021/10/06 01:55:13;;;;;;;1.05;0.60;;;22.00;55.50;;;;;;5011017;28;20026;-48
2021/10/06 01:57:39;;;;;;;0.80;0.50;;;22.00;55.50;;;;;;5012000;28;20030;-47
2021/10/06 02:00:05;;;;;;;0.70;0.40;;;22.00;55.50;;;;;;5011762;28;20049;-52
2021/10/06 02:02:31;;;;;;;1.60;0.60;;;21.90;55.50;;;;;;5012943;28;20037;-47
2021/10/06 02:04:56;;;;;;;0.70;0.43;;;21.90;55.50;;;;;;5015456;28;20471;-47
2021/10/06 02:07:22;;;;;;;1.00;0.57;;;21.90;55.50;;;;;;5014063;28;20507;-47
2021/10/06 02:09:47;;;;;;;0.52;0.30;;;21.90;55.40;;;;;;5015580;28;20034;-47
2021/10/06 02:12:13;;;;;;;0.73;0.30;;;21.90;55.50;;;;;;5014838;28;20456;-48
2021/10/06 02:14:39;;;;;;;2.95;0.50;;;21.90;55.40;;;;;;5014248;28;20056;-47
2021/10/06 02:17:05;;;;;;;2.85;0.50;;;21.90;55.40;;;;;;5014105;28;20491;-53
2021/10/06 02:19:30;;;;;;;1.58;0.40;;;22.00;55.40;;;;;;5013454;28;20022;-48
2021/10/06 02:21:56;;;;;;;0.65;0.43;;;21.90;55.30;;;;;;5014295;28;20084;-47
2021/10/06 02:24:22;;;;;;;1.75;0.60;;;21.90;55.30;;;;;;5013212;28;20056;-47
2021/10/06 02:26:48;;;;;;;2.00;0.60;;;21.90;55.30;;;;;;5014206;28;20196;-49
2021/10/06 02:29:14;;;;;;;1.38;0.50;;;21.90;55.30;;;;;;5013585;28;20068;-48
2021/10/06 02:31:39;;;;;;;1.85;0.60;;;21.90;55.30;;;;;;5014089;28;20490;-49
2021/10/06 02:34:05;;;;;;;1.63;0.55;;;21.90;55.30;;;;;;5013804;28;20172;-51
2021/10/06 02:36:31;;;;;;;0.70;0.43;;;21.90;55.30;;;;;;5013536;28;20109;-48
2021/10/06 02:38:57;;;;;;;1.15;0.50;;;21.90;55.30;;;;;;5013442;28;20045;-48
2021/10/06 02:41:22;;;;;;;2.63;0.50;;;22.00;55.30;;;;;;5011771;28;20383;-47
2021/10/06 02:43:48;;;;;;;0.90;0.50;;;21.90;55.30;;;;;;5013770;28;20045;-49
2021/10/06 02:46:14;;;;;;;0.93;0.40;;;21.90;55.30;;;;;;5013422;28;20374;-48
2021/10/06 02:48:40;;;;;;;0.80;0.40;;;21.90;55.40;;;;;;5013766;28;20109;-47
2021/10/06 02:51:05;;;;;;;2.05;0.50;;;21.90;55.30;;;;;;5013306;28;20033;-53
2021/10/06 02:53:31;;;;;;;1.65;0.50;;;21.90;55.30;;;;;;5013417;28;20028;-47
2021/10/06 02:55:57;;;;;;;2.55;0.70;;;22.00;55.30;;;;;;5013243;28;20026;-48
2021/10/06 02:58:22;;;;;;;2.05;0.50;;;21.90;55.30;;;;;;5012932;28;20028;-50
2021/10/06 03:00:48;;;;;;;0.90;0.50;;;21.90;55.30;;;;;;5013521;28;20049;-49
2021/10/06 03:03:13;;;;;;;0.70;0.38;;;21.90;55.20;;;;;;5012896;28;20407;-48
2021/10/06 03:05:39;;;;;;;0.90;0.32;;;21.90;55.20;;;;;;5014004;28;20029;-50
2021/10/06 03:08:05;;;;;;;2.90;0.40;;;21.90;55.20;;;;;;5014726;28;20069;-50
2021/10/06 03:10:30;;;;;;;1.48;0.40;;;21.90;55.20;;;;;;5014526;28;20416;-49
2021/10/06 03:12:56;;;;;;;1.02;0.40;;;21.90;55.20;;;;;;5013773;28;20084;-50
2021/10/06 03:15:22;;;;;;;0.63;0.40;;;21.90;55.20;;;;;;5011829;28;20037;-49
2021/10/06 03:17:47;;;;;;;0.52;0.30;;;21.90;55.20;;;;;;5013122;28;20087;-47
2021/10/06 03:20:13;;;;;;;1.08;0.50;;;21.90;55.20;;;;;;5012869;28;20066;-47
2021/10/06 03:22:39;;;;;;;1.63;0.50;;;21.90;55.20;;;;;;5013155;28;20053;-51
2021/10/06 03:25:05;;;;;;;1.45;0.60;;;21.90;55.20;;;;;;5012806;28;20037;-52
2021/10/06 03:27:31;;;;;;;1.23;0.60;;;21.90;55.20;;;;;;5012420;28;20046;-48
2021/10/06 03:29:57;;;;;;;0.50;0.30;;;21.90;55.20;;;;;;5012878;28;20100;-48
2021/10/06 03:32:23;;;;;;;1.00;0.40;;;21.90;55.20;;;;;;5012183;28;20591;-50
2021/10/06 03:34:48;;;;;;;1.50;0.40;;;21.90;55.20;;;;;;5012826;28;20772;-47
2021/10/06 03:37:14;;;;;;;1.10;0.47;;;21.90;55.20;;;;;;5013089;28;20270;-48
2021/10/06 03:39:40;;;;;;;0.50;0.47;;;21.90;55.20;;;;;;5012893;28;20525;-51
2021/10/06 03:42:06;;;;;;;1.30;0.55;;;21.90;55.10;;;;;;5012587;28;20022;-53
2021/10/06 03:44:31;;;;;;;1.15;0.40;;;21.90;55.20;;;;;;5011618;28;20479;-47
2021/10/06 03:46:57;;;;;;;1.92;0.52;;;21.90;55.20;;;;;;5011384;28;20030;-48
2021/10/06 03:49:23;;;;;;;0.60;0.40;;;21.90;55.10;;;;;;5011929;28;20045;-48
2021/10/06 03:51:48;;;;;;;2.05;0.43;;;21.90;55.10;;;;;;5012542;28;20042;-47
2021/10/06 03:54:14;;;;;;;1.00;0.40;;;21.90;55.10;;;;;;5011343;28;20478;-50
2021/10/06 03:56:40;;;;;;;2.13;0.47;;;21.90;55.10;;;;;;5012646;28;20030;-52
2021/10/06 03:59:05;;;;;;;1.33;0.40;;;21.90;55.10;;;;;;5012667;28;20065;-52
2021/10/06 04:01:31;;;;;;;1.45;0.50;;;21.90;55.10;;;;;;5012018;28;20429;-47
2021/10/06 04:03:57;;;;;;;0.75;0.63;;;21.90;55.10;;;;;;5011093;28;20052;-48
2021/10/06 04:06:23;;;;;;;1.13;0.40;;;21.80;55.00;;;;;;5011377;28;20041;-48
2021/10/06 04:08:48;;;;;;;1.48;0.60;;;21.80;55.10;;;;;;5012220;28;20510;-47
2021/10/06 04:11:14;;;;;;;1.42;0.50;;;21.80;55.00;;;;;;5012019;28;20037;-47
2021/10/06 04:13:40;;;;;;;1.88;0.60;;;21.90;55.10;;;;;;5012621;28;20022;-47
2021/10/06 04:16:05;;;;;;;0.93;0.40;;;21.90;55.10;;;;;;5012338;28;20045;-50
2021/10/06 04:18:31;;;;;;;1.00;0.50;;;21.90;55.10;;;;;;5011400;28;20402;-47
2021/10/06 04:20:56;;;;;;;0.85;0.30;;;21.90;55.10;;;;;;5011829;28;20026;-47
2021/10/06 04:23:22;;;;;;;1.77;0.57;;;21.90;55.00;;;;;;5010886;28;20034;-46
2021/10/06 04:25:48;;;;;;;1.00;0.50;;;21.90;55.00;;;;;;5011186;28;20033;-47
2021/10/06 04:28:13;;;;;;;0.93;0.40;;;21.90;55.00;;;;;;5010791;28;20427;-47
2021/10/06 04:30:39;;;;;;;1.08;0.40;;;21.90;55.00;;;;;;5011879;28;20534;-50
2021/10/06 04:33:04;;;;;;;2.05;0.50;;;21.80;55.00;;;;;;5011381;28;20115;-47
2021/10/06 04:35:30;;;;;;;1.02;0.55;;;21.90;55.00;;;;;;5010781;28;20080;-48
2021/10/06 04:37:56;;;;;;;1.27;0.60;;;21.80;54.90;;;;;;5013226;28;20034;-48
2021/10/06 04:40:22;;;;;;;0.95;0.60;;;21.90;55.00;;;;;;5012063;28;20034;-47
2021/10/06 04:42:48;;;;;;;1.33;0.40;;;21.90;54.90;;;;;;5013902;28;20049;-51
2021/10/06 04:45:14;;;;;;;0.93;0.32;;;21.90;54.90;;;;;;4994647;28;20046;-48
2021/10/06 04:47:40;;;;;;;1.25;0.40;;;21.90;55.00;;;;;;4993505;28;20019;-47
2021/10/06 04:50:07;;;;;;;0.70;0.40;;;21.80;55.60;;;;;;4993555;28;20360;-49
2021/10/06 04:52:32;;;;;;;1.38;0.40;;;21.90;55.00;;;;;;4992617;28;20037;-48
2021/10/06 04:54:58;;;;;;;0.60;0.45;;;21.80;54.90;;;;;;5011112;28;20038;-48
2021/10/06 04:57:24;;;;;;;1.40;0.50;;;21.90;54.90;;;;;;5011790;28;20061;-49
2021/10/06 04:59:50;;;;;;;1.05;0.55;;;21.90;54.90;;;;;;5012556;28;20101;-48
2021/10/06 05:02:15;;;;;;;1.92;0.32;;;21.80;54.90;;;;;;5011985;28;20407;-47
2021/10/06 05:04:41;;;;;;;1.45;0.70;;;21.80;54.90;;;;;;5012273;28;20428;-49
2021/10/06 05:07:07;;;;;;;0.30;0.30;;;21.80;55.00;;;;;;5012494;28;20092;-52
2021/10/06 05:09:33;;;;;;;0.80;0.40;;;21.90;55.00;;;;;;5011415;28;20053;-50
2021/10/06 05:12:00;;;;;;;1.17;0.40;;;21.80;54.90;;;;;;5012582;28;20112;-48
2021/10/06 05:14:28;;;;;;;1.02;0.60;;;21.80;55.00;;;;;;5011247;28;20069;-48
2021/10/06 05:16:54;;;;;;;0.90;0.50;;;21.80;55.20;;;;;;5012539;28;20032;-50
2021/10/06 05:19:20;;;;;;;1.17;0.50;;;21.90;55.10;;;;;;5011282;28;20097;-48
2021/10/06 05:21:46;;;;;;;2.15;0.63;;;21.90;55.20;;;;;;5011330;28;20030;-49
2021/10/06 05:24:12;;;;;;;2.03;1.05;;;21.90;55.20;;;;;;5009641;28;20048;-53
2021/10/06 05:26:38;;;;;;;2.97;0.80;;;21.90;55.20;;;;;;5010644;28;20057;-47
2021/10/06 05:29:03;;;;;;;1.75;0.40;;;21.90;55.30;;;;;;5010855;28;20029;-52
2021/10/06 05:31:29;;;;;;;8.82;1.05;;;22.00;55.30;;;;;;5010275;28;20790;-49
2021/10/06 05:33:55;;;;;;;3.80;0.70;;;22.10;56.10;;;;;;5010910;28;20114;-50
2021/10/06 05:36:21;;;;;;;2.22;0.75;;;22.10;56.40;;;;;;5009978;28;20034;-46
2021/10/06 05:38:48;;;;;;;3.65;0.75;;;22.10;56.60;;;;;;5010717;28;20034;-53
2021/10/06 05:41:13;;;;;;;1.70;0.77;;;22.10;57.00;;;;;;5009681;28;20084;-52
2021/10/06 05:43:39;;;;;;;5.60;1.00;;;22.10;57.00;;;;;;5010398;28;20463;-52
2021/10/06 05:46:05;;;;;;;3.50;0.95;;;22.10;57.00;;;;;;5010311;28;20029;-50
2021/10/06 05:48:30;;;;;;;6.65;0.90;;;22.10;56.90;;;;;;5010112;28;20573;-51
2021/10/06 05:50:56;;;;;;;5.18;1.00;;;22.10;56.90;;;;;;5007950;28;20467;-51
2021/10/06 05:53:22;;;;;;;3.85;0.77;;;22.10;57.20;;;;;;5008720;28;20482;-52
2021/10/06 05:55:47;;;;;;;2.42;0.80;;;21.90;51.20;;;;;;5010433;28;20548;-51
2021/10/06 05:58:13;;;;;;;7.88;2.25;;;21.90;54.70;;;;;;5009557;28;20025;-51
2021/10/06 06:00:39;;;;;;;6.95;1.13;;;21.90;54.40;;;;;;5010321;28;20033;-49
2021/10/06 06:03:07;;;;;;;4.45;1.13;;;21.90;56.30;;;;;;5012015;28;20486;-49
2021/10/06 06:05:33;;;;;;;6.75;0.80;;;22.00;57.60;;;;;;5010757;28;20030;-48
2021/10/06 06:07:58;;;;;;;8.70;1.00;;;22.00;57.70;;;;;;5010422;28;20080;-48
2021/10/06 06:10:24;;;;;;;2.80;0.75;;;22.00;57.30;;;;;;5010888;28;20041;-48
2021/10/06 06:12:49;;;;;;;9.70;0.98;;;22.00;57.50;;;;;;5011272;28;20034;-48
2021/10/06 06:15:15;;;;;;;6.55;1.00;;;22.00;57.50;;;;;;5010859;28;20034;-51
2021/10/06 06:17:41;;;;;;;4.65;1.15;;;22.00;57.80;;;;;;5012186;28;20113;-48
2021/10/06 06:20:12;;;;;;;8.57;1.27;;;22.00;58.00;;;;;;5011297;28;20044;-49
2021/10/06 06:22:39;;;;;;;4.65;0.85;;;22.00;57.80;;;;;;5011926;28;20425;-49
2021/10/06 06:25:07;;;;;;;11.02;1.15;;;22.00;58.10;;;;;;5011699;28;20157;-48
2021/10/06 06:27:33;;;;;;;5.75;0.85;;;21.90;58.40;;;;;;5010776;28;20060;-49
2021/10/06 06:29:58;;;;;;;8.82;1.10;;;21.90;58.10;;;;;;5011852;28;20029;-50
2021/10/06 06:32:24;;;;;;;7.18;1.48;;;21.90;58.50;;;;;;5011028;28;20029;-50
2021/10/06 06:34:50;;;;;;;6.72;1.02;;;21.90;58.50;;;;;;5011329;28;20030;-49
2021/10/06 06:37:16;;;;;;;3.60;0.80;;;21.90;58.60;;;;;;5011069;28;20450;-52
2021/10/06 06:39:41;;;;;;;6.70;0.90;;;22.00;58.80;;;;;;5011693;28;20030;-48
2021/10/06 06:42:07;;;;;;;8.27;1.00;;;22.00;58.70;;;;;;5011748;28;20029;-49
2021/10/06 06:44:33;;;;;;;6.18;1.70;;;21.90;58.70;;;;;;5002131;28;20387;-48
2021/10/06 06:46:59;;;;;;;4.60;0.88;;;21.90;58.60;;;;;;5011099;28;20034;-48
2021/10/06 06:49:24;;;;;;;4.32;0.90;;;21.80;58.60;;;;;;5013209;28;20739;-50
2021/10/06 06:51:50;;;;;;;4.75;0.80;;;21.80;58.70;;;;;;5014939;28;20030;-51
2021/10/06 06:54:15;;;;;;;2.67;0.85;;;21.80;58.80;;;;;;5013751;28;20477;-50
2021/10/06 06:56:41;;;;;;;3.38;0.98;;;21.80;58.80;;;;;;5014575;28;20030;-51
2021/10/06 06:59:09;;;;;;;7.10;1.13;;;21.80;58.80;;;;;;5014382;28;20029;-49
2021/10/06 07:01:36;;;;;;;6.28;0.90;;;21.80;58.80;;;;;;5014431;28;20040;-48
2021/10/06 07:04:01;;;;;;;3.20;0.70;;;21.90;58.70;;;;;;5014625;28;20140;-52
2021/10/06 07:06:33;;;;;;;6.43;1.10;;;21.80;58.60;;;;;;5013829;28;20475;-48
2021/10/06 07:08:59;;;;;;;7.22;1.20;;;21.80;58.60;;;;;;5014281;28;20387;-50
2021/10/06 07:11:25;;;;;;;4.78;1.17;;;21.80;58.70;;;;;;5013990;28;20037;-50
2021/10/06 07:13:51;;;;;;;4.88;1.02;;;21.80;58.70;;;;;;5012600;28;20034;-48
2021/10/06 07:16:17;;;;;;;5.00;1.00;;;21.80;58.70;;;;;;5013806;28;20485;-49
2021/10/06 07:18:43;;;;;;;2.60;0.95;;;21.80;58.70;;;;;;5028335;28;20030;-49
2021/10/06 07:21:09;;;;;;;3.20;0.68;;;21.80;59.30;;;;;;5014202;28;20037;-49
2021/10/06 07:23:34;;;;;;;3.08;0.80;;;21.90;58.70;;;;;;5013825;28;20073;-50
2021/10/06 07:26:00;;;;;;;5.05;0.82;;;21.90;58.70;;;;;;5014110;28;20060;-50
2021/10/06 07:28:26;;;;;;;4.63;1.20;;;21.80;58.60;;;;;;5013563;28;20030;-49
2021/10/06 07:30:52;;;;;;;5.80;1.20;;;21.80;58.60;;;;;;5013928;28;20026;-48
2021/10/06 07:33:18;;;;;;;6.50;1.10;;;21.80;58.60;;;;;;5013161;28;20103;-49
2021/10/06 07:35:44;;;;;;;2.92;0.75;;;21.80;58.60;;;;;;5012276;28;20029;-50
2021/10/06 07:38:09;;;;;;;6.65;0.95;;;21.80;59.10;;;;;;5013096;28;20040;-49
2021/10/06 07:40:35;;;;;;;4.25;0.80;;;21.80;58.50;;;;;;5013294;28;20475;-50
2021/10/06 07:43:01;;;;;;;8.65;1.10;;;21.90;58.30;;;;;;5011013;28;20105;-50
2021/10/06 07:45:26;;;;;;;3.83;1.15;;;21.80;58.30;;;;;;5011815;28;20037;-48
2021/10/06 07:47:52;;;;;;;2.40;1.05;;;21.80;58.30;;;;;;5013601;28;20030;-47
2021/10/06 07:50:17;;;;;;;1.92;0.85;;;21.80;58.30;;;;;;5013131;28;20375;-52
2021/10/06 07:52:43;;;;;;;3.03;0.70;;;21.80;58.30;;;;;;5013397;28;20026;-48
2021/10/06 07:55:09;;;;;;;3.90;0.77;;;21.90;58.30;;;;;;5013165;28;20038;-50
2021/10/06 07:57:35;;;;;;;2.97;0.95;;;21.80;58.20;;;;;;5012591;28;20399;-53
2021/10/06 08:00:04;;;;;;;3.97;0.95;;;21.80;58.20;;;;;;5012423;28;20057;-48
2021/10/06 08:02:29;;;;;;;4.43;0.93;;;21.80;58.10;;;;;;5012895;28;20026;-49
2021/10/06 08:04:55;;;;;;;3.00;0.65;;;21.80;58.10;;;;;;5012527;28;20449;-49
2021/10/06 08:07:20;;;;;;;2.58;0.85;;;21.80;58.10;;;;;;5012398;28;20050;-51
2021/10/06 08:09:46;;;;;;;3.88;0.95;;;21.80;58.10;;;;;;5013145;28;20491;-52
2021/10/06 08:12:12;;;;;;;8.93;1.20;;;21.90;58.50;;;;;;5013308;28;20030;-49
2021/10/06 08:14:38;;;;;;;8.38;1.00;;;21.90;59.10;;;;;;5012106;28;20034;-50
2021/10/06 08:17:04;;;;;;;6.55;1.40;;;22.00;58.90;;;;;;5013362;28;20125;-46
2021/10/06 08:19:30;;;;;;;4.15;1.33;;;22.00;59.00;;;;;;5012416;28;20072;-47
2021/10/06 08:21:56;;;;;;;6.78;1.05;;;22.00;58.80;;;;;;5012702;28;20030;-45
2021/10/06 08:24:22;;;;;;;7.10;1.23;;;22.10;60.00;;;;;;5011641;28;20431;-45
2021/10/06 08:26:48;;;;;;;3.45;1.13;;;22.10;60.00;;;;;;5013077;28;20034;-45
2021/10/06 08:29:14;;;;;;;6.93;0.80;;;22.10;59.60;;;;;;5012716;28;20165;-48
2021/10/06 08:31:40;;;;;;;3.25;1.08;;;22.00;59.50;;;;;;5011507;28;20108;-45
2021/10/06 08:34:05;;;;;;;4.40;0.70;;;22.00;59.50;;;;;;5009583;28;20034;-44
2021/10/06 08:36:32;;;;;;;4.20;0.80;;;22.00;59.40;;;;;;5011572;28;20049;-45
2021/10/06 08:38:58;;;;;;;8.07;1.00;;;22.00;59.80;;;;;;5012648;28;20339;-44
2021/10/06 08:41:24;;;;;;;6.82;0.90;;;22.00;61.00;;;;;;5011563;28;20033;-47
2021/10/06 08:43:50;;;;;;;8.75;1.10;;;22.00;60.00;;;;;;5008440;28;20026;-47
2021/10/06 08:46:16;;;;;;;5.72;1.10;;;;;;;;;;5010821;28;20108;-51
2021/10/06 08:48:42;;;;;;;3.17;0.88;;;;;;;;;;5012570;28;20048;-45
2021/10/06 08:51:08;;;;;;;6.45;0.77;;;;;;;;;;5009223;28;20018;-54
2021/10/06 08:53:34;;;;;;;2.92;0.80;;;;;;;;;;5008175;28;20178;-45
2021/10/06 08:56:00;;;;;;;16.48;1.38;;;;;;;;;;5012030;28;20479;-49
2021/10/06 08:58:26;;;;;;;3.13;0.90;;;;;;;;;;5011416;28;20033;-54
2021/10/06 09:00:52;;;;;;;7.80;1.52;;;;;;;;;;5011567;28;20076;-49
2021/10/06 09:03:24;;;;;;;3.95;0.90;;;;;;;;;;5007792;28;20025;-53
2021/10/06 09:05:59;;;;;;;7.20;1.52;;;;;;;;;;5008818;28;20553;-46
2021/10/06 09:08:26;;;;;;;11.25;1.10;;;;;;;;;;5011438;28;20030;-45
2021/10/06 09:10:53;;;;;;;6.28;1.50;;;;;;;;;;5009271;28;20487;-46
2021/10/06 09:13:24;;;;;;;7.88;0.95;;;;;;;;;;5010833;28;20030;-58
2021/10/06 09:15:50;;;;;;;5.97;0.93;;;;;;;;;;5012333;28;20029;-59
2021/10/06 09:18:19;;;;;;;3.70;0.85;;;;;;;;;;5010561;28;20738;-58
2021/10/06 09:20:45;;;;;;;7.00;1.35;;;;;;;;;;5011804;28;20057;-59
2021/10/06 09:23:13;;;;;;;7.45;0.95;;;;;;;;;;5012116;28;20034;-59
2021/10/06 09:25:58;;;;;;;3.95;0.80;;;;;;;;;;5011073;28;20026;-59
2021/10/06 09:28:24;;;;;;;5.78;1.10;;;;;;;;;;5011489;28;20040;-59
2021/10/06 09:30:54;;;;;;;4.50;1.13;;;;;;;;;;5011722;28;20029;-59
2021/10/06 09:33:20;;;;;;;2.88;0.70;;;;;;;;;;5010952;28;20120;-58
2021/10/06 09:35:50;;;;;;;3.15;1.00;;;;;;;;;;5011489;28;20075;-59
2021/10/06 09:38:16;;;;;;;5.55;0.77;;;;;;;;;;5010733;28;20033;-59
2021/10/06 09:40:42;;;;;;;6.95;0.90;;;;;;;;;;5011203;28;20163;-59
2021/10/06 09:43:08;;;;;;;2.65;0.85;;;;;;;;;;5011393;28;20506;-59
2021/10/06 09:45:36;;;;;;;4.07;1.35;;;;;;;;;;5010773;28;20030;-59
2021/10/06 09:48:09;;;;;;;3.38;0.90;;;;;;;;;;5011324;28;20092;-59
2021/10/06 09:50:38;;;;;;;3.25;1.02;;;;;;;;;;5011050;28;20034;-59
2021/10/06 09:53:12;;;;;;;2.63;0.80;;;;;;;;;;5011186;28;20535;-59
2021/10/06 09:55:39;;;;;;;3.67;0.80;;;;;;;;;;5011007;28;20267;-59
2021/10/06 09:58:07;;;;;;;1.70;0.60;;;;;;;;;;5011667;28;20045;-59
2021/10/06 10:00:33;;;;;;;2.55;0.57;;;;;;;;;;5010889;28;20356;-58
2021/10/06 10:03:00;;;;;;;2.08;0.65;;;;;;;;;;5011142;28;20025;-59
2021/10/06 10:05:26;;;;;;;3.90;0.90;;;;;;;;;;5010128;28;20091;-59
2021/10/06 10:07:53;;;;;;;3.75;1.02;;;;;;;;;;5010954;28;20108;-59
2021/10/06 10:10:20;;;;;;;2.22;0.70;;;;;;;;;;5010939;28;20030;-59
2021/10/06 10:12:46;;;;;;;2.60;0.60;;;;;;;;;;5011131;28;20026;-59
2021/10/06 10:15:14;;;;;;;4.03;0.88;;;;;;;;;;5011248;28;20467;-59
2021/10/06 10:17:40;;;;;;;1.73;0.68;;;;;;;;;;5010352;28;20080;-59
2021/10/06 10:20:16;;;;;;;1.80;0.75;;;;;;;;;;5011548;28;20026;-59
2021/10/06 10:22:45;;;;;;;5.18;0.70;;;;;;;;;;5011093;28;20052;-59
2021/10/06 10:25:15;;;;;;;2.00;0.50;;;;;;;;;;5015326;28;20026;-59
2021/10/06 10:28:00;;;;;;;3.58;0.90;;;;;;;;;;5014494;28;20029;-59
2021/10/06 10:30:26;;;;;;;4.43;0.73;;;;;;;;;;5014031;28;20471;-59
2021/10/06 10:32:52;;;;;;;4.20;1.77;;;;;;;;;;5014674;28;20471;-59
2021/10/06 10:35:18;;;;;;;2.95;0.70;;;;;;;;;;5015024;28;20029;-58
2021/10/06 10:37:51;;;;;;;1.42;0.40;;;;;;;;;;5014168;28;20034;-58
2021/10/06 10:40:32;;;;;;;1.65;0.93;;;;;;;;;;5015228;28;20348;-59
2021/10/06 10:43:00;;;;;;;1.87;0.50;;;;;;;;;;5014845;28;20026;-58
2021/10/06 10:45:48;;;;;;;1.63;0.60;;;;;;;;;;5014340;28;20037;-58
2021/10/06 10:48:16;;;;;;;1.58;0.55;;;;;;;;;;5014708;28;20018;-59
2021/10/06 10:50:42;;;;;;;2.33;0.40;;;;;;;;;;5014071;28;20026;-58
2021/10/06 10:53:09;;;;;;;4.43;0.70;;;;;;;;;;5014821;28;20049;-59
2021/10/06 10:55:52;;;;;;;2.08;0.50;;;;;;;;;;5014055;28;20091;-58
2021/10/06 10:58:30;;;;;;;3.05;0.80;;;;;;;;;;5014423;28;20037;-58
2021/10/06 11:00:56;;;;;;;3.15;0.60;;;;;;;;;;5014680;28;20033;-59
2021/10/06 11:03:23;;;;;;;3.05;1.40;;;;;;;;;;5013287;28;20105;-58
2021/10/06 11:05:49;;;;;;;2.08;0.65;;;;;;;;;;5013810;28;20491;-58
2021/10/06 11:08:29;;;;;;;1.77;0.50;;;;;;;;;;5014495;28;20065;-59
2021/10/06 11:11:10;;;;;;;2.03;0.50;;;;;;;;;;5014313;28;20096;-58
2021/10/06 11:13:37;;;;;;;2.45;0.70;;;;;;;;;;5011505;28;20029;-58
2021/10/06 11:16:04;;;;;;;1.52;0.55;;;;;;;;;;5013965;28;20030;-59
2021/10/06 11:18:44;;;;;;;1.60;0.73;;;;;;;;;;5013101;28;20030;-58
2021/10/06 11:21:10;;;;;;;2.63;0.60;;;;;;;;;;5013168;28;20030;-59
2021/10/06 11:23:42;;;;;;;2.35;0.60;;;;;;;;;;5013476;28;20084;-58
2021/10/06 11:26:10;;;;;;;1.65;0.68;;;;;;;;;;5014408;28;20080;-58
2021/10/06 11:28:40;;;;;;;3.40;0.57;;;;;;;;;;5013549;28;20113;-58
2021/10/06 11:31:06;;;;;;;1.23;0.40;;;;;;;;;;5013924;28;20026;-59
2021/10/06 11:33:33;;;;;;;3.08;0.60;;;;;;;;;;5012953;28;20067;-58
2021/10/06 11:36:25;;;;;;;0.98;0.43;;;;;;;;;;5013669;28;20044;-58
2021/10/06 11:39:08;;;;;;;2.10;0.60;;;;;;;;;;5011352;28;20084;-58
2021/10/06 11:41:35;;;;;;;2.65;0.70;;;;;;;;;;5012606;28;20049;-58
2021/10/06 11:44:02;;;;;;;3.03;0.65;;;;;;;;;;5010049;28;20076;-59
2021/10/06 11:46:34;;;;;;;1.10;0.73;;;;;;;;;;5012959;28;20029;-58
2021/10/06 11:49:07;;;;;;;1.63;0.63;;;;;;;;;;5013959;28;20022;-59
2021/10/06 11:51:41;;;;;;;1.67;0.60;;;;;;;;;;5012787;28;20072;-58
2021/10/06 11:54:08;;;;;;;0.80;0.50;;;;;;;;;;5013814;28;20080;-59
2021/10/06 11:56:34;;;;;;;2.20;0.57;;;;;;;;;;5013246;28;20021;-58
2021/10/06 11:59:11;;;;;;;1.63;0.77;;;;;;;;;;5013706;28;20029;-59
2021/10/06 12:01:38;;;;;;;2.05;0.77;;;;;;;;;;5011789;28;20030;-59
2021/10/06 12:04:07;;;;;;;2.35;0.68;;;;;;;;;;5013182;28;20033;-59
2021/10/06 12:06:33;;;;;;;2.08;0.82;;;;;;;;;;5012410;28;20101;-58
2021/10/06 12:09:01;;;;;;;1.30;0.60;;;;;;;;;;5013237;28;20490;-59
2021/10/06 12:11:27;;;;;;;0.80;0.50;;;;;;;;;;5011403;28;20504;-58
2021/10/06 12:13:53;;;;;;;1.25;0.98;;;;;;;;;;5011955;28;20041;-59
2021/10/06 12:16:29;;;;;;;0.43;0.30;;;;;;;;;;5005335;28;20029;-58
2021/10/06 12:19:00;;;;;;;3.30;1.05;;;;;;;;;;5014142;28;20352;-59
2021/10/06 12:21:26;;;;;;;2.63;0.70;;;;;;;;;;5013227;28;20026;-58
2021/10/06 12:23:52;;;;;;;1.05;0.60;;;;;;;;;;5012897;28;20088;-58
2021/10/06 12:26:20;;;;;;;1.48;0.60;;;;;;;;;;5013197;28;20022;-58
2021/10/06 12:28:50;;;;;;;1.50;0.60;;;;;;;;;;5012615;28;20022;-59
2021/10/06 12:31:20;;;;;;;1.90;0.50;;;;;;;;;;5013305;28;20029;-59
2021/10/06 12:33:46;;;;;;;1.70;0.68;;;;;;;;;;5014669;28;20108;-58
2021/10/06 12:36:13;;;;;;;1.45;0.50;;;;;;;;;;5012956;28;20100;-58
2021/10/06 12:38:39;;;;;;;0.90;0.60;;;;;;;;;;5012788;28;20374;-58
2021/10/06 12:41:14;;;;;;;1.83;0.50;;;;;;;;;;5011808;28;20026;-58
2021/10/06 12:43:44;;;;;;;1.48;0.47;;;;;;;;;;5011449;28;20026;-58
2021/10/06 12:46:11;;;;;;;2.40;0.65;;;;;;;;;;5012430;28;20022;-59
2021/10/06 12:48:40;;;;;;;1.88;0.52;;;;;;;;;;5012039;28;20022;-58
2021/10/06 12:51:07;;;;;;;1.00;0.30;;;;;;;;;;5012714;28;20022;-58
2021/10/06 12:53:34;;;;;;;1.67;0.60;;;;;;;;;;5011390;28;20044;-58
2021/10/06 12:56:00;;;;;;;1.30;0.50;;;;;;;;;;5012204;28;20483;-58
2021/10/06 12:58:25;;;;;;;0.77;0.50;;;;;;;;;;5012107;28;20038;-58
2021/10/06 13:00:52;;;;;;;1.83;0.93;;;;;;;;;;5012609;28;20018;-58
2021/10/06 13:03:18;;;;;;;2.92;0.70;;;;;;;;;;5012340;28;20025;-58
2021/10/06 13:05:44;;;;;;;1.02;0.45;;;;;;;;;;5011224;28;20733;-58
2021/10/06 13:08:17;;;;;;;2.13;0.47;;;;;;;;;;5012593;28;20036;-59
2021/10/06 13:10:43;;;;;;;1.50;0.40;;;;;;;;;;5011778;28;20058;-58
2021/10/06 13:13:09;;;;;;;1.17;0.52;;;;;;;;;;5010654;28;20033;-58
2021/10/06 13:15:36;;;;;;;0.73;0.40;;;;;;;;;;5010715;28;20487;-58
2021/10/06 13:18:02;;;;;;;0.80;0.40;;;;;;;;;;5012434;28;20022;-58
2021/10/06 13:20:28;;;;;;;1.02;0.40;;;;;;;;;;5011649;28;20053;-58